Muse, Pennsylvania
Current Conditions -  °F | °C
As of 6:51 PM on Sunday 21 Dec 2014 (Local Time) from KPIT Reporting Station
Scattered Clouds Scattered Clouds  
Wind Chill: 24°   Ceiling: Unl
Heat Index: 29°   Visibility: 10mi
Dew Point: 22°   Wind: 5mph
Humidity: 75%   Direction: 70°ENE
Pressure: 30.22"   Gusts: NA
Location:  40.29°N, 80.2°W
Report Text: KPIT 212351Z 07004KT 10SM SCT220 M02/M06 A3022 RMK AO2 SLP256 T10171056 10006 21022 58003
Loading
Personal Weather Stations






























Interactive Weather Map New forecast layout! Learn more

10-Day Weather Forecast

Advertisements
Track Severe Weather on mobile